sensor_id;sensor_type;location;lat;lon;timestamp;pressure;altitude;pressure_sealevel;temperature;humidity
4398;BME280;2213;49.720;7.296;2023-01-27T00:00:48;98474.59;;;2.25;100.00
4398;BME280;2213;49.720;7.296;2023-01-27T00:03:18;98469.44;;;2.25;100.00
4398;BME280;2213;49.720;7.296;2023-01-27T00:05:48;98469.44;;;2.25;100.00
4398;BME280;2213;49.720;7.296;2023-01-27T00:08:19;98474.44;;;2.27;100.00
4398;BME280;2213;49.720;7.296;2023-01-27T00:10:49;98473.53;;;2.28;100.00
4398;BME280;2213;49.720;7.296;2023-01-27T00:13:39;98470.94;;;2.28;100.00
4398;BME280;2213;49.720;7.296;2023-01-27T00:16:08;98468.22;;;2.29;100.00
4398;BME280;2213;49.720;7.296;2023-01-27T00:18:39;98468.34;;;2.28;100.00
4398;BME280;2213;49.720;7.296;2023-01-27T00:21:07;98469.03;;;2.30;100.00
4398;BME280;2213;49.720;7.296;2023-01-27T00:23:56;98466.59;;;2.28;100.00
4398;BME280;2213;49.720;7.296;2023-01-27T00:26:43;98468.22;;;2.29;100.00
4398;BME280;2213;49.720;7.296;2023-01-27T00:29:12;98474.19;;;2.30;100.00
4398;BME280;2213;49.720;7.296;2023-01-27T00:31:41;98470.78;;;2.29;100.00
4398;BME280;2213;49.720;7.296;2023-01-27T00:34:28;98467.28;;;2.30;100.00
4398;BME280;2213;49.720;7.296;2023-01-27T00:36:57;98471.50;;;2.31;100.00
4398;BME280;2213;49.720;7.296;2023-01-27T00:39:28;98461.19;;;2.31;100.00
4398;BME280;2213;49.720;7.296;2023-01-27T00:41:58;98466.34;;;2.31;100.00
4398;BME280;2213;49.720;7.296;2023-01-27T00:44:27;98466.22;;;2.33;100.00
4398;BME280;2213;49.720;7.296;2023-01-27T00:46:56;98453.44;;;2.31;100.00
4398;BME280;2213;49.720;7.296;2023-01-27T00:49:26;98462.00;;;2.32;100.00
4398;BME280;2213;49.720;7.296;2023-01-27T00:51:55;98459.28;;;2.33;100.00
4398;BME280;2213;49.720;7.296;2023-01-27T00:54:27;98460.94;;;2.34;100.00
4398;BME280;2213;49.720;7.296;2023-01-27T00:56:57;98458.25;;;2.36;100.00
4398;BME280;2213;49.720;7.296;2023-01-27T00:59:27;98453.09;;;2.36;100.00
4398;BME280;2213;49.720;7.296;2023-01-27T01:01:56;98460.69;;;2.37;100.00
4398;BME280;2213;49.720;7.296;2023-01-27T01:04:26;98444.53;;;2.35;100.00
4398;BME280;2213;49.720;7.296;2023-01-27T01:06:56;98463.25;;;2.37;100.00
4398;BME280;2213;49.720;7.296;2023-01-27T01:09:27;98457.16;;;2.38;100.00
4398;BME280;2213;49.720;7.296;2023-01-27T01:11:58;98465.72;;;2.39;100.00
4398;BME280;2213;49.720;7.296;2023-01-27T01:14:28;98459.75;;;2.38;100.00
4398;BME280;2213;49.720;7.296;2023-01-27T01:16:57;98463.16;;;2.39;100.00
4398;BME280;2213;49.720;7.296;2023-01-27T01:19:29;98458.00;;;2.39;100.00
4398;BME280;2213;49.720;7.296;2023-01-27T01:21:58;98467.34;;;2.40;100.00
4398;BME280;2213;49.720;7.296;2023-01-27T01:24:30;98463.97;;;2.39;100.00
4398;BME280;2213;49.720;7.296;2023-01-27T01:27:00;98462.91;;;2.42;100.00
4398;BME280;2213;49.720;7.296;2023-01-27T01:29:30;98462.06;;;2.41;100.00
4398;BME280;2213;49.720;7.296;2023-01-27T01:32:00;98467.22;;;2.41;100.00
4398;BME280;2213;49.720;7.296;2023-01-27T01:34:31;98464.75;;;2.40;100.00
4398;BME280;2213;49.720;7.296;2023-01-27T01:37:01;98464.75;;;2.40;100.00
4398;BME280;2213;49.720;7.296;2023-01-27T01:39:32;98469.13;;;2.39;100.00
4398;BME280;2213;49.720;7.296;2023-01-27T01:42:02;98471.47;;;2.42;100.00
4398;BME280;2213;49.720;7.296;2023-01-27T01:44:32;98470.50;;;2.43;100.00
4398;BME280;2213;49.720;7.296;2023-01-27T01:47:01;98468.88;;;2.42;100.00
4398;BME280;2213;49.720;7.296;2023-01-27T01:49:37;98470.50;;;2.43;100.00
4398;BME280;2213;49.720;7.296;2023-01-27T01:52:14;98471.31;;;2.44;100.00
4398;BME280;2213;49.720;7.296;2023-01-27T01:54:50;98461.81;;;2.44;100.00
4398;BME280;2213;49.720;7.296;2023-01-27T01:57:26;98468.63;;;2.45;100.00
4398;BME280;2213;49.720;7.296;2023-01-27T02:00:02;98470.38;;;2.45;100.00
4398;BME280;2213;49.720;7.296;2023-01-27T02:02:33;98467.81;;;2.45;100.00
4398;BME280;2213;49.720;7.296;2023-01-27T02:05:08;98467.66;;;2.46;100.00
4398;BME280;2213;49.720;7.296;2023-01-27T02:07:46;98466.97;;;2.44;100.00
4398;BME280;2213;49.720;7.296;2023-01-27T02:10:21;98460.16;;;2.43;100.00
4398;BME280;2213;49.720;7.296;2023-01-27T02:12:51;98466.16;;;2.44;100.00
4398;BME280;2213;49.720;7.296;2023-01-27T02:15:21;98455.84;;;2.44;100.00
4398;BME280;2213;49.720;7.296;2023-01-27T02:17:51;98455.72;;;2.45;100.00
4398;BME280;2213;49.720;7.296;2023-01-27T02:20:27;98456.53;;;2.46;100.00
4398;BME280;2213;49.720;7.296;2023-01-27T02:23:04;98454.75;;;2.46;100.00
4398;BME280;2213;49.720;7.296;2023-01-27T02:25:47;98455.56;;;2.47;100.00
4398;BME280;2213;49.720;7.296;2023-01-27T02:28:16;98452.19;;;2.46;100.00
4398;BME280;2213;49.720;7.296;2023-01-27T02:30:46;98456.41;;;2.47;100.00
4398;BME280;2213;49.720;7.296;2023-01-27T02:33:15;98454.66;;;2.48;100.00
4398;BME280;2213;49.720;7.296;2023-01-27T02:35:57;98452.88;;;2.48;100.00
4398;BME280;2213;49.720;7.296;2023-01-27T02:38:34;98453.81;;;2.47;100.00
4398;BME280;2213;49.720;7.296;2023-01-27T02:41:18;98453.97;;;2.46;100.00
4398;BME280;2213;49.720;7.296;2023-01-27T02:43:50;98452.06;;;2.48;100.00
4398;BME280;2213;49.720;7.296;2023-01-27T02:46:19;98465.91;;;2.47;100.00
4398;BME280;2213;49.720;7.296;2023-01-27T02:48:49;98463.56;;;2.44;100.00
4398;BME280;2213;49.720;7.296;2023-01-27T02:51:19;98455.72;;;2.45;100.00
4398;BME280;2213;49.720;7.296;2023-01-27T02:53:50;98454.91;;;2.45;100.00
4398;BME280;2213;49.720;7.296;2023-01-27T02:56:21;98465.22;;;2.45;100.00
4398;BME280;2213;49.720;7.296;2023-01-27T02:58:51;98461.81;;;2.44;100.00
4398;BME280;2213;49.720;7.296;2023-01-27T03:01:21;98460.16;;;2.43;100.00
4398;BME280;2213;49.720;7.296;2023-01-27T03:03:51;98462.50;;;2.46;100.00
4398;BME280;2213;49.720;7.296;2023-01-27T03:06:22;98463.47;;;2.45;100.00
4398;BME280;2213;49.720;7.296;2023-01-27T03:08:52;98458.31;;;2.45;100.00
4398;BME280;2213;49.720;7.296;2023-01-27T03:11:23;98457.34;;;2.46;100.00
4398;BME280;2213;49.720;7.296;2023-01-27T03:14:06;98461.56;;;2.47;100.00
4398;BME280;2213;49.720;7.296;2023-01-27T03:16:37;98457.22;;;2.48;100.00
4398;BME280;2213;49.720;7.296;2023-01-27T03:19:24;98464.28;;;2.46;100.00
4398;BME280;2213;49.720;7.296;2023-01-27T03:21:55;98468.38;;;2.48;100.00
4398;BME280;2213;49.720;7.296;2023-01-27T03:24:31;98463.47;;;2.45;100.00
4398;BME280;2213;49.720;7.296;2023-01-27T03:27:03;98460.88;;;2.45;100.00
4398;BME280;2213;49.720;7.296;2023-01-27T03:29:33;98465.06;;;2.46;100.00
4398;BME280;2213;49.720;7.296;2023-01-27T03:32:20;98464.13;;;2.47;100.00
4398;BME280;2213;49.720;7.296;2023-01-27T03:34:49;98459.81;;;2.48;100.00
4398;BME280;2213;49.720;7.296;2023-01-27T03:37:20;98466.72;;;2.47;100.00
4398;BME280;2213;49.720;7.296;2023-01-27T03:40:09;98468.38;;;2.48;100.00
4398;BME280;2213;49.720;7.296;2023-01-27T03:42:58;98470.00;;;2.49;100.00
4398;BME280;2213;49.720;7.296;2023-01-27T03:45:49;98462.28;;;2.49;100.00
4398;BME280;2213;49.720;7.296;2023-01-27T03:48:36;98469.19;;;2.49;100.00
4398;BME280;2213;49.720;7.296;2023-01-27T03:51:09;98472.59;;;2.49;100.00
4398;BME280;2213;49.720;7.296;2023-01-27T03:53:39;98476.94;;;2.49;100.00
4398;BME280;2213;49.720;7.296;2023-01-27T03:56:09;98468.38;;;2.48;100.00
4398;BME280;2213;49.720;7.296;2023-01-27T03:58:40;98471.06;;;2.47;100.00
4398;BME280;2213;49.720;7.296;2023-01-27T04:01:16;98470.00;;;2.49;100.00
4398;BME280;2213;49.720;7.296;2023-01-27T04:03:47;98475.19;;;2.49;100.00
4398;BME280;2213;49.720;7.296;2023-01-27T04:06:37;98479.50;;;2.49;100.00
4398;BME280;2213;49.720;7.296;2023-01-27T04:09:26;98480.34;;;2.49;100.00
4398;BME280;2213;49.720;7.296;2023-01-27T04:11:59;98472.59;;;2.49;100.00
4398;BME280;2213;49.720;7.296;2023-01-27T04:14:31;98478.53;;;2.50;100.00
4398;BME280;2213;49.720;7.296;2023-01-27T04:17:03;98471.78;;;2.49;100.00
4398;BME280;2213;49.720;7.296;2023-01-27T04:19:33;98473.38;;;2.50;100.00
4398;BME280;2213;49.720;7.296;2023-01-27T04:22:04;98480.19;;;2.51;100.00
4398;BME280;2213;49.720;7.296;2023-01-27T04:24:34;98480.34;;;2.49;100.00
4398;BME280;2213;49.720;7.296;2023-01-27T04:27:06;98476.78;;;2.50;100.00
4398;BME280;2213;49.720;7.296;2023-01-27T04:29:40;98480.09;;;2.52;100.00
4398;BME280;2213;49.720;7.296;2023-01-27T04:32:12;98477.34;;;2.54;100.00
4398;BME280;2213;49.720;7.296;2023-01-27T04:34:41;98469.75;;;2.52;100.00
4398;BME280;2213;49.720;7.296;2023-01-27T04:37:11;98476.53;;;2.53;100.00
4398;BME280;2213;49.720;7.296;2023-01-27T04:39:40;98478.19;;;2.54;100.00
4398;BME280;2213;49.720;7.296;2023-01-27T04:42:13;98477.50;;;2.52;100.00
4398;BME280;2213;49.720;7.296;2023-01-27T04:44:45;98485.25;;;2.52;100.00
4398;BME280;2213;49.720;7.296;2023-01-27T04:47:15;98488.38;;;2.56;100.00
4398;BME280;2213;49.720;7.296;2023-01-27T04:49:46;98487.69;;;2.54;100.00
4398;BME280;2213;49.720;7.296;2023-01-27T04:52:15;98485.25;;;2.52;100.00
4398;BME280;2213;49.720;7.296;2023-01-27T04:54:45;98480.09;;;2.52;100.00
4398;BME280;2213;49.720;7.296;2023-01-27T04:57:16;98487.81;;;2.52;100.00
4398;BME280;2213;49.720;7.296;2023-01-27T04:59:46;98490.78;;;2.48;100.00
4398;BME280;2213;49.720;7.296;2023-01-27T05:02:18;98494.03;;;2.50;100.00
4398;BME280;2213;49.720;7.296;2023-01-27T05:04:47;98497.69;;;2.47;100.00
4398;BME280;2213;49.720;7.296;2023-01-27T05:07:17;98484.69;;;2.49;100.00
4398;BME280;2213;49.720;7.296;2023-01-27T05:09:46;98498.41;;;2.49;100.00
4398;BME280;2213;49.720;7.296;2023-01-27T05:12:16;98489.94;;;2.47;100.00
4398;BME280;2213;49.720;7.296;2023-01-27T05:14:47;98489.94;;;2.47;100.00
4398;BME280;2213;49.720;7.296;2023-01-27T05:17:17;98502.03;;;2.47;100.00
4398;BME280;2213;49.720;7.296;2023-01-27T05:19:46;98497.00;;;2.45;100.00
4398;BME280;2213;49.720;7.296;2023-01-27T05:22:16;98503.09;;;2.44;100.00
4398;BME280;2213;49.720;7.296;2023-01-27T05:24:46;98505.81;;;2.43;100.00
4398;BME280;2213;49.720;7.296;2023-01-27T05:27:16;98497.94;;;2.44;100.00
4398;BME280;2213;49.720;7.296;2023-01-27T05:29:47;98508.28;;;2.44;100.00
4398;BME280;2213;49.720;7.296;2023-01-27T05:32:17;98510.59;;;2.47;100.00
4398;BME280;2213;49.720;7.296;2023-01-27T05:34:48;98516.94;;;2.43;100.00
4398;BME280;2213;49.720;7.296;2023-01-27T05:37:17;98518.00;;;2.41;100.00
4398;BME280;2213;49.720;7.296;2023-01-27T05:39:48;98528.09;;;2.44;100.00
4398;BME280;2213;49.720;7.296;2023-01-27T05:42:18;98521.31;;;2.43;100.00
4398;BME280;2213;49.720;7.296;2023-01-27T05:44:50;98529.84;;;2.43;100.00
4398;BME280;2213;49.720;7.296;2023-01-27T05:47:20;98527.97;;;2.45;100.00
4398;BME280;2213;49.720;7.296;2023-01-27T05:49:49;98527.16;;;2.45;100.00
4398;BME280;2213;49.720;7.296;2023-01-27T05:52:18;98533.81;;;2.47;100.00
4398;BME280;2213;49.720;7.296;2023-01-27T05:54:48;98523.50;;;2.47;100.00
4398;BME280;2213;49.720;7.296;2023-01-27T05:57:19;98535.31;;;2.50;100.00
4398;BME280;2213;49.720;7.296;2023-01-27T05:59:51;98535.22;;;2.51;100.00
4398;BME280;2213;49.720;7.296;2023-01-27T06:02:21;98542.38;;;2.48;100.00
4398;BME280;2213;49.720;7.296;2023-01-27T06:04:50;98546.63;;;2.49;100.00
4398;BME280;2213;49.720;7.296;2023-01-27T06:07:21;98545.78;;;2.48;100.00
4398;BME280;2213;49.720;7.296;2023-01-27T06:09:51;98546.72;;;2.47;100.00
4398;BME280;2213;49.720;7.296;2023-01-27T06:12:20;98541.97;;;2.43;100.00
4398;BME280;2213;49.720;7.296;2023-01-27T06:14:51;98547.66;;;2.46;100.00
4398;BME280;2213;49.720;7.296;2023-01-27T06:17:24;98560.56;;;2.46;100.00
4398;BME280;2213;49.720;7.296;2023-01-27T06:19:54;98562.09;;;2.49;100.00
4398;BME280;2213;49.720;7.296;2023-01-27T06:22:25;98566.19;;;2.51;100.00
4398;BME280;2213;49.720;7.296;2023-01-27T06:24:55;98565.25;;;2.52;100.00
4398;BME280;2213;49.720;7.296;2023-01-27T06:27:25;98571.22;;;2.53;100.00
4398;BME280;2213;49.720;7.296;2023-01-27T06:29:56;98567.00;;;2.52;100.00
4398;BME280;2213;49.720;7.296;2023-01-27T06:32:27;98569.44;;;2.53;100.00
4398;BME280;2213;49.720;7.296;2023-01-27T06:34:58;98566.19;;;2.51;100.00
4398;BME280;2213;49.720;7.296;2023-01-27T06:37:28;98573.94;;;2.51;100.00
4398;BME280;2213;49.720;7.296;2023-01-27T06:39:59;98573.94;;;2.51;100.00
4398;BME280;2213;49.720;7.296;2023-01-27T06:42:29;98567.00;;;2.52;100.00
4398;BME280;2213;49.720;7.296;2023-01-27T06:45:00;98573.81;;;2.53;100.00
4398;BME280;2213;49.720;7.296;2023-01-27T06:47:31;98572.03;;;2.53;100.00
4398;BME280;2213;49.720;7.296;2023-01-27T06:50:03;98577.91;;;2.56;100.00
4398;BME280;2213;49.720;7.296;2023-01-27T06:52:33;98581.41;;;2.54;100.00
4398;BME280;2213;49.720;7.296;2023-01-27T06:55:03;98580.16;;;2.49;100.00
4398;BME280;2213;49.720;7.296;2023-01-27T06:57:35;98585.19;;;2.50;100.00
4398;BME280;2213;49.720;7.296;2023-01-27T07:00:10;98594.81;;;2.48;100.00
4398;BME280;2213;49.720;7.296;2023-01-27T07:02:40;98587.09;;;2.48;100.00
4398;BME280;2213;49.720;7.296;2023-01-27T07:05:11;98585.19;;;2.50;100.00
4398;BME280;2213;49.720;7.296;2023-01-27T07:07:41;98583.44;;;2.51;100.00
4398;BME280;2213;49.720;7.296;2023-01-27T07:10:12;98578.25;;;2.51;100.00
4398;BME280;2213;49.720;7.296;2023-01-27T07:12:42;98593.88;;;2.49;100.00
4398;BME280;2213;49.720;7.296;2023-01-27T07:15:13;98588.72;;;2.49;100.00
4398;BME280;2213;49.720;7.296;2023-01-27T07:17:43;98592.00;;;2.51;100.00
4398;BME280;2213;49.720;7.296;2023-01-27T07:20:13;98589.78;;;2.47;100.00
4398;BME280;2213;49.720;7.296;2023-01-27T07:22:43;98598.34;;;2.47;100.00
4398;BME280;2213;49.720;7.296;2023-01-27T07:25:13;98595.75;;;2.47;100.00
4398;BME280;2213;49.720;7.296;2023-01-27T07:27:45;98596.56;;;2.48;100.00
4398;BME280;2213;49.720;7.296;2023-01-27T07:30:16;98604.69;;;2.43;100.00
4398;BME280;2213;49.720;7.296;2023-01-27T07:32:47;98602.56;;;2.48;100.00
4398;BME280;2213;49.720;7.296;2023-01-27T07:35:17;98604.22;;;2.49;100.00
4398;BME280;2213;49.720;7.296;2023-01-27T07:37:46;98608.91;;;2.44;100.00
4398;BME280;2213;49.720;7.296;2023-01-27T07:40:18;98610.56;;;2.45;100.00
4398;BME280;2213;49.720;7.296;2023-01-27T07:42:49;98604.44;;;2.46;100.00
4398;BME280;2213;49.720;7.296;2023-01-27T07:45:22;98611.25;;;2.47;100.00
4398;BME280;2213;49.720;7.296;2023-01-27T07:47:52;98616.28;;;2.49;100.00
4398;BME280;2213;49.720;7.296;2023-01-27T07:50:21;98608.66;;;2.47;100.00
4398;BME280;2213;49.720;7.296;2023-01-27T07:52:51;98611.13;;;2.49;100.00
4398;BME280;2213;49.720;7.296;2023-01-27T07:55:20;98617.91;;;2.50;100.00
4398;BME280;2213;49.720;7.296;2023-01-27T07:57:53;98615.31;;;2.50;100.00
4398;BME280;2213;49.720;7.296;2023-01-27T08:00:26;98622.97;;;2.51;100.00
4398;BME280;2213;49.720;7.296;2023-01-27T08:02:59;98617.56;;;2.54;100.00
4398;BME280;2213;49.720;7.296;2023-01-27T08:05:32;98620.03;;;2.56;100.00
4398;BME280;2213;49.720;7.296;2023-01-27T08:08:03;98626.13;;;2.55;100.00
4398;BME280;2213;49.720;7.296;2023-01-27T08:10:34;98622.97;;;2.51;100.00
4398;BME280;2213;49.720;7.296;2023-01-27T08:13:03;98626.22;;;2.53;100.00
4398;BME280;2213;49.720;7.296;2023-01-27T08:15:35;98622.59;;;2.56;100.00
4398;BME280;2213;49.720;7.296;2023-01-27T08:18:05;98629.53;;;2.56;100.00
4398;BME280;2213;49.720;7.296;2023-01-27T08:20:34;98624.63;;;2.52;100.00
4398;BME280;2213;49.720;7.296;2023-01-27T08:23:03;98618.38;;;2.55;100.00
4398;BME280;2213;49.720;7.296;2023-01-27T08:25:34;98631.16;;;2.57;100.00
4398;BME280;2213;49.720;7.296;2023-01-27T08:28:04;98622.59;;;2.56;100.00
4398;BME280;2213;49.720;7.296;2023-01-27T08:30:35;98624.94;;;2.59;100.00
4398;BME280;2213;49.720;7.296;2023-01-27T08:33:05;98625.75;;;2.60;100.00
4398;BME280;2213;49.720;7.296;2023-01-27T08:35:34;98624.00;;;2.60;100.00
4398;BME280;2213;49.720;7.296;2023-01-27T08:38:06;98634.44;;;2.59;100.00
4398;BME280;2213;49.720;7.296;2023-01-27T08:40:35;98637.25;;;2.56;100.00
4398;BME280;2213;49.720;7.296;2023-01-27T08:43:06;98638.78;;;2.58;100.00
4398;BME280;2213;49.720;7.296;2023-01-27T08:45:37;98650.84;;;2.58;100.00
4398;BME280;2213;49.720;7.296;2023-01-27T08:48:06;98648.03;;;2.61;100.00
4398;BME280;2213;49.720;7.296;2023-01-27T08:50:39;98644.50;;;2.62;100.00
4398;BME280;2213;49.720;7.296;2023-01-27T08:53:08;98649.69;;;2.62;100.00
4398;BME280;2213;49.720;7.296;2023-01-27T08:55:38;98655.41;;;2.65;100.00
4398;BME280;2213;49.720;7.296;2023-01-27T08:58:08;98657.06;;;2.66;100.00
4398;BME280;2213;49.720;7.296;2023-01-27T09:00:40;98664.81;;;2.66;100.00
4398;BME280;2213;49.720;7.296;2023-01-27T09:03:10;98670.53;;;2.70;100.00
4398;BME280;2213;49.720;7.296;2023-01-27T09:05:41;98668.22;;;2.67;100.00
4398;BME280;2213;49.720;7.296;2023-01-27T09:08:12;98675.00;;;2.68;100.00
4398;BME280;2213;49.720;7.296;2023-01-27T09:10:43;98673.13;;;2.70;100.00
4398;BME280;2213;49.720;7.296;2023-01-27T09:13:13;98680.88;;;2.70;100.00
4398;BME280;2213;49.720;7.296;2023-01-27T09:15:44;98684.97;;;2.72;100.00
4398;BME280;2213;49.720;7.296;2023-01-27T09:18:14;98681.69;;;2.70;100.00
4398;BME280;2213;49.720;7.296;2023-01-27T09:20:44;98690.47;;;2.68;100.00
4398;BME280;2213;49.720;7.296;2023-01-27T09:23:15;98691.88;;;2.72;100.00
4398;BME280;2213;49.720;7.296;2023-01-27T09:25:46;98682.28;;;2.74;100.00
4398;BME280;2213;49.720;7.296;2023-01-27T09:28:15;98680.38;;;2.76;100.00
4398;BME280;2213;49.720;7.296;2023-01-27T09:30:48;98687.88;;;2.79;100.00
4398;BME280;2213;49.720;7.296;2023-01-27T09:33:17;98691.16;;;2.81;100.00
4398;BME280;2213;49.720;7.296;2023-01-27T09:35:55;98690.22;;;2.82;100.00
4398;BME280;2213;49.720;7.296;2023-01-27T09:38:29;98690.34;;;2.80;100.00
4398;BME280;2213;49.720;7.296;2023-01-27T09:41:52;98689.28;;;2.83;100.00
4398;BME280;2213;49.720;7.296;2023-01-27T09:45:06;98697.28;;;2.80;100.00
4398;BME280;2213;49.720;7.296;2023-01-27T09:48:39;98693.38;;;2.85;100.00
4398;BME280;2213;49.720;7.296;2023-01-27T09:51:24;98696.91;;;2.84;100.00
4398;BME280;2213;49.720;7.296;2023-01-27T09:54:32;98702.66;;;2.88;100.00
4398;BME280;2213;49.720;7.296;2023-01-27T09:57:15;98699.81;;;2.91;100.00
4398;BME280;2213;49.720;7.296;2023-01-27T10:00:27;98705.66;;;2.93;100.00
4398;BME280;2213;49.720;7.296;2023-01-27T10:06:39;98691.31;;;3.00;100.00
4398;BME280;2213;49.720;7.296;2023-01-27T10:09:59;98695.66;;;2.99;100.00
4398;BME280;2213;49.720;7.296;2023-01-27T10:13:00;98696.50;;;3.00;100.00
4398;BME280;2213;49.720;7.296;2023-01-27T10:15:59;98690.97;;;3.04;100.00
4398;BME280;2213;49.720;7.296;2023-01-27T10:18:50;98693.66;;;3.03;100.00
4398;BME280;2213;49.720;7.296;2023-01-27T10:21:33;98700.22;;;3.07;100.00
4398;BME280;2213;49.720;7.296;2023-01-27T10:24:16;98702.69;;;3.09;100.00
4398;BME280;2213;49.720;7.296;2023-01-27T10:26:54;98699.03;;;3.11;100.00
4398;BME280;2213;49.720;7.296;2023-01-27T10:29:29;98700.53;;;3.14;100.00
4398;BME280;2213;49.720;7.296;2023-01-27T10:32:08;98697.03;;;3.15;100.00
4398;BME280;2213;49.720;7.296;2023-01-27T10:34:50;98693.25;;;3.19;100.00
4398;BME280;2213;49.720;7.296;2023-01-27T10:37:32;98699.09;;;3.21;100.00
4398;BME280;2213;49.720;7.296;2023-01-27T10:40:14;98694.75;;;3.21;100.00
4398;BME280;2213;49.720;7.296;2023-01-27T10:42:56;98694.66;;;3.23;100.00
4398;BME280;2213;49.720;7.296;2023-01-27T10:45:35;98689.34;;;3.24;100.00
4398;BME280;2213;49.720;7.296;2023-01-27T10:48:35;98692.63;;;3.26;100.00
4398;BME280;2213;49.720;7.296;2023-01-27T10:51:12;98688.97;;;3.29;100.00
4398;BME280;2213;49.720;7.296;2023-01-27T10:53:54;98685.31;;;3.31;100.00
4398;BME280;2213;49.720;7.296;2023-01-27T10:56:34;98691.41;;;3.30;100.00
4398;BME280;2213;49.720;7.296;2023-01-27T10:59:17;98687.22;;;3.29;100.00
4398;BME280;2213;49.720;7.296;2023-01-27T11:01:58;98691.41;;;3.30;100.00
4398;BME280;2213;49.720;7.296;2023-01-27T11:04:36;98680.41;;;3.28;100.00
4398;BME280;2213;49.720;7.296;2023-01-27T11:07:07;98682.84;;;3.30;100.00
4398;BME280;2213;49.720;7.296;2023-01-27T11:09:53;98680.03;;;3.33;100.00
4398;BME280;2213;49.720;7.296;2023-01-27T11:12:31;98687.53;;;3.36;100.00
4398;BME280;2213;49.720;7.296;2023-01-27T11:15:17;98681.28;;;3.38;100.00
4398;BME280;2213;49.720;7.296;2023-01-27T11:17:52;98685.25;;;3.42;100.00
4398;BME280;2213;49.720;7.296;2023-01-27T11:20:29;98691.25;;;3.43;100.00
4398;BME280;2213;49.720;7.296;2023-01-27T11:23:12;98693.94;;;3.41;100.00
4398;BME280;2213;49.720;7.296;2023-01-27T11:25:52;98688.91;;;3.40;100.00
4398;BME280;2213;49.720;7.296;2023-01-27T11:28:35;98693.00;;;3.42;100.00
4398;BME280;2213;49.720;7.296;2023-01-27T11:31:21;98682.94;;;3.39;100.00
4398;BME280;2213;49.720;7.296;2023-01-27T11:34:02;98687.69;;;3.44;100.00
4398;BME280;2213;49.720;7.296;2023-01-27T11:36:35;98687.59;;;3.45;100.00
4398;BME280;2213;49.720;7.296;2023-01-27T11:39:05;98685.94;;;3.44;100.00
4398;BME280;2213;49.720;7.296;2023-01-27T11:41:41;98679.16;;;3.43;100.00
4398;BME280;2213;49.720;7.296;2023-01-27T11:44:19;98674.78;;;3.44;100.00
4398;BME280;2213;49.720;7.296;2023-01-27T11:46:51;98678.88;;;3.46;100.00
4398;BME280;2213;49.720;7.296;2023-01-27T11:49:26;98673.84;;;3.45;100.00
4398;BME280;2213;49.720;7.296;2023-01-27T11:52:04;98675.03;;;3.41;100.00
4398;BME280;2213;49.720;7.296;2023-01-27T11:54:41;98679.63;;;3.37;100.00
4398;BME280;2213;49.720;7.296;2023-01-27T11:57:19;98679.19;;;3.32;100.00
4398;BME280;2213;49.720;7.296;2023-01-27T11:59:53;98673.78;;;3.35;100.00
4398;BME280;2213;49.720;7.296;2023-01-27T12:02:32;98667.66;;;3.36;100.00
4398;BME280;2213;49.720;7.296;2023-01-27T12:05:10;98669.53;;;3.34;100.00
4398;BME280;2213;49.720;7.296;2023-01-27T12:07:51;98662.50;;;3.36;100.00
4398;BME280;2213;49.720;7.296;2023-01-27T12:10:27;98664.94;;;3.38;100.00
4398;BME280;2213;49.720;7.296;2023-01-27T12:13:07;98672.59;;;3.39;100.00
4398;BME280;2213;49.720;7.296;2023-01-27T12:15:47;98669.28;;;3.37;100.00
4398;BME280;2213;49.720;7.296;2023-01-27T12:18:17;98662.25;;;3.39;100.00
4398;BME280;2213;49.720;7.296;2023-01-27T12:20:56;98667.97;;;3.43;100.00
4398;BME280;2213;49.720;7.296;2023-01-27T12:23:31;98666.03;;;3.35;100.00
4398;BME280;2213;49.720;7.296;2023-01-27T12:26:05;98663.19;;;3.38;100.00
4398;BME280;2213;49.720;7.296;2023-01-27T12:28:41;98667.41;;;3.39;100.00
4398;BME280;2213;49.720;7.296;2023-01-27T12:31:16;98660.34;;;3.41;100.00
4398;BME280;2213;49.720;7.296;2023-01-27T12:33:57;98661.28;;;3.40;100.00
4398;BME280;2213;49.720;7.296;2023-01-27T12:36:27;98662.00;;;3.42;100.00
4398;BME280;2213;49.720;7.296;2023-01-27T12:39:00;98659.16;;;3.45;100.00
4398;BME280;2213;49.720;7.296;2023-01-27T12:41:33;98651.13;;;3.48;100.00
4398;BME280;2213;49.720;7.296;2023-01-27T12:44:16;98642.69;;;3.46;100.00
4398;BME280;2213;49.720;7.296;2023-01-27T12:47:00;98650.88;;;3.51;100.00
4398;BME280;2213;49.720;7.296;2023-01-27T12:49:33;98640.53;;;3.51;100.00
4398;BME280;2213;49.720;7.296;2023-01-27T12:52:04;98644.09;;;3.50;100.00
4398;BME280;2213;49.720;7.296;2023-01-27T12:54:36;98647.09;;;3.55;100.00
4398;BME280;2213;49.720;7.296;2023-01-27T12:57:11;98638.50;;;3.55;100.00
4398;BME280;2213;49.720;7.296;2023-01-27T12:59:50;98637.56;;;3.56;100.00
4398;BME280;2213;49.720;7.296;2023-01-27T13:02:24;98640.72;;;3.60;100.00
4398;BME280;2213;49.720;7.296;2023-01-27T13:04:58;98638.69;;;3.63;100.00
4398;BME280;2213;49.720;7.296;2023-01-27T13:07:32;98634.34;;;3.64;100.00
4398;BME280;2213;49.720;7.296;2023-01-27T13:10:20;98634.75;;;3.69;100.00
4398;BME280;2213;49.720;7.296;2023-01-27T13:12:52;98633.00;;;3.69;100.00
4398;BME280;2213;49.720;7.296;2023-01-27T13:15:24;98636.16;;;3.73;100.00
4398;BME280;2213;49.720;7.296;2023-01-27T13:17:56;98636.03;;;3.74;100.00
4398;BME280;2213;49.720;7.296;2023-01-27T13:20:31;98639.56;;;3.73;100.00
4398;BME280;2213;49.720;7.296;2023-01-27T13:23:09;98640.66;;;3.71;100.00
4398;BME280;2213;49.720;7.296;2023-01-27T13:25:48;98638.75;;;3.73;100.00
4398;BME280;2213;49.720;7.296;2023-01-27T13:28:28;98648.81;;;3.76;100.00
4398;BME280;2213;49.720;7.296;2023-01-27T13:31:32;98657.28;;;3.78;100.00
4398;BME280;2213;49.720;7.296;2023-01-27T13:34:14;98657.53;;;3.75;100.00
4398;BME280;2213;49.720;7.296;2023-01-27T13:36:52;98659.16;;;3.76;100.00
4398;BME280;2213;49.720;7.296;2023-01-27T13:39:39;98662.94;;;3.72;100.00
4398;BME280;2213;49.720;7.296;2023-01-27T13:42:17;98657.78;;;3.72;100.00
4398;BME280;2213;49.720;7.296;2023-01-27T13:44:55;98659.44;;;3.73;100.00
4398;BME280;2213;49.720;7.296;2023-01-27T13:47:33;98661.19;;;3.72;100.00
4398;BME280;2213;49.720;7.296;2023-01-27T13:52:49;98658.34;;;3.75;100.00
4398;BME280;2213;49.720;7.296;2023-01-27T13:55:31;98656.72;;;3.74;100.00
4398;BME280;2213;49.720;7.296;2023-01-27T13:58:12;98653.84;;;3.68;100.00
4398;BME280;2213;49.720;7.296;2023-01-27T14:00:53;98661.59;;;3.68;100.00
4398;BME280;2213;49.720;7.296;2023-01-27T14:03:59;98656.84;;;3.73;100.00
4398;BME280;2213;49.720;7.296;2023-01-27T14:06:48;98659.16;;;3.76;100.00
4398;BME280;2213;49.720;7.296;2023-01-27T14:09:43;98663.41;;;3.77;100.00